Flight Track Log - Related Links

Times and Time Zones

All times are in EDT time to prevent confusion due to time zone crossing. See the SWA3943 flight status page for this flight to view local times or setup timezone preferences in your user account.

Time Position Orientation Groundspeed Altitude Reporting Facility
EDT Latitude Longitude Course Direction KTS MPH feet Rate Location/Type
Wed 08:29:25 PM 39.9906 -82.8081 92° East 207 238 3,500  Level Indianapolis Center
Wed 08:30:33 PM 39.9894 -82.7200 91° East 228 262 6,400 3,231 Climbing Indianapolis Center
Wed 08:31:35 PM 39.9872 -82.6258 92° East 252 290 10,500 3,463 Climbing Indianapolis Center
Wed 08:32:36 PM 39.9872 -82.5122 90° East 308 354 13,500 3,122 Climbing Indianapolis Center
Wed 08:33:38 PM 39.9897 -82.3903 88° East 328 377 16,900 2,976 Climbing Indianapolis Center
Wed 08:34:39 PM 39.9942 -82.2594 87° East 350 403 19,600 2,732 Climbing Indianapolis Center
Wed 08:35:41 PM 39.9978 -82.1217 88° East 369 425 22,500 2,927 Climbing Indianapolis Center
Wed 08:36:42 PM 40.0006 -81.9553 89° East 386 444 25,600 2,439 Climbing Indianapolis Center
Wed 08:37:44 PM 40.0028 -81.8086 89° East 398 458 27,500 1,659 Climbing Indianapolis Center
Wed 08:38:45 PM 40.0050 -81.6594 89° East 407 468 29,000 732 Climbing Indianapolis Center
Wed 08:39:47 PM 39.9903 -81.4997 97° East 437 503 29,000  Level Indianapolis Center
Wed 08:40:48 PM 39.9697 -81.3361 99° East 451 519 29,000  Level Indianapolis Center
Wed 08:41:50 PM 39.9522 -81.1939 99° East 437 503 29,000  Level Indianapolis Center
Wed 08:42:21 PM 39.9408 -81.0894 98° East 439 505 29,000  Level Cleveland Center
Wed 08:43:22 PM 39.9228 -80.9378 99° East 427 491 29,000  Level Cleveland Center
Wed 08:44:21 PM 39.9003 -80.7861 101° East 427 491 29,000  Level Cleveland Center
Wed 08:45:22 PM 39.8794 -80.6344 100° East 427 491 29,000  Level Cleveland Center
Wed 08:46:22 PM 39.8608 -80.4775 99° East 427 491 29,000  Level Cleveland Center
Wed 08:47:21 PM 39.8397 -80.3264 100° East 427 491 29,000  Level Cleveland Center
Wed 08:48:22 PM 39.8183 -80.1722 100° East 427 491 29,000  Level Cleveland Center
Wed 08:49:22 PM 39.7969 -80.0183 100° East 427 491 29,000  Level Cleveland Center
Wed 08:51:03 PM 39.7619 -79.7756 101° East 423 487 29,000  Level Washington Center
Wed 08:52:03 PM 39.7403 -79.6125 100° East 437 503 29,000  Level Washington Center
Wed 08:53:03 PM 39.7164 -79.4519 101° East 442 509 29,000 -99 Level Washington Center
Wed 08:54:04 PM 39.6922 -79.2914 101° East 447 514 28,800 -1,587 Descending Washington Center
Wed 08:55:04 PM 39.6719 -79.1367 100° East 447 514 25,800 -1,884 Descending Washington Center
Wed 08:56:05 PM 39.6411 -78.9789 104° East 452 520 25,000 -407 Descending Washington Center
Wed 08:57:02 PM 39.6000 -78.8072 107° East 457 526 25,000  Level Washington Center
Wed 08:58:02 PM 39.5664 -78.6578 106° East 452 520 25,000 -1,082 Level Washington Center
Wed 08:59:04 PM 39.5325 -78.5083 106° East 440 506 22,800 -2,508 Descending Washington Center
Wed 09:00:04 PM 39.5025 -78.3672 105° East 421 484 19,900 -2,672 Descending Washington Center
Wed 09:01:03 PM 39.4722 -78.2317 106° East 405 466 17,500 -2,471 Descending Washington Center
Wed 09:02:03 PM 39.4436 -78.1042 106° East 388 447 15,000 -1,388 Descending Washington Center
Wed 09:03:04 PM 39.4233 -77.9747 101° East 375 432 14,700 -857 Descending Washington Center
Wed 09:04:02 PM 39.4300 -77.8458 86° East 364 419 13,300 -1,311 Descending Washington Center
Wed 09:05:03 PM 39.4322 -77.7222 89° East 351 404 12,100 -1,131 Descending Washington Center
Wed 09:06:04 PM 39.4364 -77.6042 87° East 339 390 11,000 -492 Descending Washington Center
Wed 09:07:05 PM 39.4403 -77.4914 87° East 319 367 11,100  Climbing Washington Center
Wed 09:08:14 PM 39.4500 -77.3500 85° East 293 337 11,000  Descending Potomac TRACON
Wed 09:09:14 PM 39.4667 -77.2500 78° East 294 338 11,100 -600 Climbing Potomac TRACON
Wed 09:10:14 PM 39.4667 -77.1667 90° East 281 323 9,800 -1,500 Descending Potomac TRACON
Wed 09:11:14 PM 39.4833 -77.0667 78° East 278 320 8,100 -1,714 Descending Potomac TRACON
Wed 09:12:20 PM 39.4833 -76.9500 90° East 277 319 6,200 -1,429 Descending Potomac TRACON
Wed 09:13:20 PM 39.4500 -76.8667 117° Southeast 264 304 5,100 -1,000 Descending Potomac TRACON
Wed 09:14:20 PM 39.3833 -76.8167 150° Southeast 274 315 4,200 -600 Descending Potomac TRACON
Wed 09:15:20 PM 39.3167 -76.8333 191° South 276 318 3,900 -850 Descending Potomac TRACON
Wed 09:16:20 PM 39.2500 -76.8333 180° South 249 287 2,500 -714 Descending Potomac TRACON
Wed 09:17:26 PM 39.1833 -76.8167 169° South 170 196 2,400 -250 Descending Potomac TRACON
Wed 09:18:20 PM 39.1833 -76.7833 90° East 116 133 2,000 -632 Descending Potomac TRACON
Wed 09:19:20 PM 39.1833 -76.7500 90° East 114 131 1,200 -700 Descending Potomac TRACON
Wed 09:20:20 PM 39.1833 -76.7167 90° East 114 131 600 -600 Descending Potomac TRACON
Wed 09:22:00 PM 39.1667 -76.6667 142° Southeast  Level FlightAware Approximate
Wed 09:29:00 PM 39.1754 -76.6683 142° Southeast  Level Estimated
Wed 09:30:00 PM 39.1754 -76.6683 142° Southeast  Level Estimated
Wed 09:31:00 PM 39.1754 -76.6683 142° Southeast  Level Estimated

Login

Don't have an account? Register now (free) for customized features, flight alerts, and more!